Historyczne dane pomiarowe

Dodano dane terminowe – wersja testowa.

Dane z okresu 1951-2019

Wersja bazy: 1.34 [2019-03-16, lista zmian], aktualizacja planowana na 2019-04-15

Dane meteo z obszaru Polski uzyskane na podstawie danych udostępnionych przez Instytut Meteorologii i Gospodarki Wodnej – Państwowy Instytut Badawczy.

 

Wybierz Datę:    

       

TemperaturaWilgotnośćWiatrCiśnienieOpadyŚniegCzas trwania zjawisk
 Stacja t tx tn tng RH VA  wxwx mslp ppp RRR   cm mm wxwxwxwxwxwxwx
1987-06-28 18.5 25.0 10.1 7.4 78.0- 5.7 1.7---- 0.0------------
1987-06-27 16.5 19.9 13.7 11.3 88.8- 5.7 1.7---- 5.5------------
1987-06-26 16.0 24.1 7.3 4.8 78.5- 4.7 3.0---- 14.4------------
1987-06-25 13.7 17.6 12.5 10.2 84.0- 6.7 2.0---- 2.2------------
1987-06-24 16.1 21.1 11.9 7.8 75.5- 5.0 1.7---- 6.9------------
1987-06-23 15.3 20.7 9.6 7.4 77.8- 4.3 2.0---- 0.0------------
1987-06-22 13.5 16.6 11.9 11.6 88.5- 8.0 3.3---- 1.7------------
1987-06-21 16.5 22.0 10.5 7.4 78.0- 6.7 4.0---- 2.1------------
1987-06-20 15.5 21.6 10.0 6.9 76.5- 7.0 1.7---- 0.1------------
1987-06-19 12.9 18.2 8.0 4.4 75.0- 6.3 2.3---- 0.2------------
1987-06-18 10.6 14.8 8.9 4.9 78.0- 8.0 1.7---- 10.7------------
1987-06-17 12.3 17.0 9.4 6.3 70.0- 6.7 2.3---- 0.0------------
1987-06-16 12.8 24.8 9.9 9.5 78.5- 8.0 5.7---- 2.8------------
1987-06-15 21.2 27.9 15.6 12.7 76.3- 7.0 3.0---- 10.2------------
1987-06-14 20.3 24.1 15.1 11.6 75.8- 4.3 2.3---- 1.2------------
1987-06-13 19.0 23.0 14.5 10.2 74.8- 2.7 2.0---- 0.0------------
1987-06-12 17.8 25.4 9.9 5.9 76.5- 6.3 1.3---- 0.0------------
1987-06-11 16.1 22.6 6.4 2.5 73.0- 0.3 1.3---- 0.0------------
1987-06-10 13.4 18.2 8.4 5.8 90.5- 5.3 1.7---- 4.2------------
1987-06-09 12.9 14.9 11.0 7.3 86.0- 6.0 1.0---- 0.5------------
1987-06-08 17.2 23.8 12.6 10.2 82.8- 7.3 3.0---- 6.7------------
1987-06-07 18.9 24.3 13.2 10.0 70.8- 6.7 3.3---- 18.6------------
1987-06-06 16.2 22.0 8.6 3.4 67.0- 3.3 4.0---- 0.0------------
1987-06-05 15.0 19.0 12.2 11.1 76.8- 5.3 6.3---- 0.0------------
1987-06-04 15.0 18.5 10.1 6.6 86.0- 6.0 0.7---- 3.0------------
1987-06-03 10.9 15.1 7.6 3.9 95.0- 8.0 1.0---- 4.3------------
1987-06-02 11.2 16.9 5.7 1.5 82.8- 5.0 2.7---- 3.5------------
1987-06-01 11.0 17.3 3.5 -0.3 79.5- 8.0 2.0---- 1.6------------
1987-05-31 10.9 15.1 5.7 1.8 73.5- 4.3 1.3---- 0.0------------
1987-05-30 9.7 13.9 8.6 4.8 89.0- 7.3 1.0---- 8.6------------
1987-05-29 12.1 17.5 5.0 0.4 66.3- 6.0 2.0---- 5.8------------
1987-05-28 14.0 19.4 12.6 8.0 79.3- 7.3 4.0---- 0.2------------
1987-05-27 15.1 22.3 4.7 0.5 63.3- 2.7 2.0---- 1.8------------
1987-05-26 13.2 18.6 7.2 4.3 68.3- 0.0 2.0---- 0.0------------
1987-05-25 11.3 15.1 6.7 2.6 74.0- 2.0 1.3---- 0.0------------
1987-05-24 12.0 15.6 8.9 4.9 72.5- 7.0 2.0---- 0.0------------
1987-05-23 10.7 14.4 9.1 7.7 89.3- 8.0 3.0---- 0.2------------
1987-05-22 7.3 10.0 5.4 5.2 94.5- 8.0 3.3---- 13.7------------
1987-05-21 9.2 11.5 5.5 3.2 73.0- 5.7 4.0---- 20.3------------
1987-05-20 10.8 15.1 8.5 3.7 86.3- 8.0 1.7---- 0.6------------
1987-05-19 13.9 17.1 11.1 8.3 86.0- 5.0 2.0---- 1.5------------
1987-05-18 12.4 20.4 6.3 1.5 85.3- 6.3 1.0---- 4.4------------
1987-05-17 11.3 16.1 5.2 0.3 70.3- 2.3 3.0---- 0.0------------
1987-05-16 11.0 14.0 8.0 7.7 79.0- 8.0 2.0---- 7.3------------
1987-05-15 10.3 17.7 0.5 -3.0 70.5- 3.3 3.0---- 0.0------------
1987-05-14 7.6 10.5 6.2 4.8 92.0- 4.3 1.7---- 2.6------------
1987-05-13 10.5 16.9 8.0 8.2 87.8- 8.0 2.3---- 20.3------------
1987-05-12 12.3 19.9 1.4 -2.6 61.5- 6.0 4.0---- 0.0------------
1987-05-11 10.4 14.3 7.0 5.3 58.3- 3.7 4.3---- 0.0------------
1987-05-10 14.6 24.2 1.6 -2.9 59.0- 4.3 5.7---- 2.6------------
1987-05-09 11.0 18.1 0.1 -4.0 62.5- 2.0 4.7---- 0.0------------
1987-05-08 8.0 13.6 1.7 -2.0 62.8- 5.7 2.7---- 0.0------------
1987-05-07 9.5 13.0 6.7 5.2 72.8- 5.7 4.3---- 0.0------------
1987-05-06 7.9 10.9 6.1 6.2 87.5- 7.0 2.0---- 1.0------------
1987-05-05 12.1 15.8 10.6 6.9 87.5- 7.3 2.7---- 0.0------------
1987-05-04 12.8 16.4 11.0 10.6 88.5- 6.0 1.0---- 0.0------------
1987-05-03 14.4 19.4 11.7 6.7 82.0- 7.3 2.7---- 5.1------------
1987-05-02 16.8 23.0 9.1 4.8 67.5- 5.7 1.3---- 0.5------------
1987-05-01 15.0 23.0 4.6 0.0 67.5- 4.0 2.7---- 0.4------------
1987-04-30 15.8 23.5 7.7 2.1 48.8- 0.0 2.3---- 0.0------------
524.6 ms

 

Źródłem pochodzenia danych jest Instytut Meteorologii i Gospodarki Wodnej – Państwowy Instytut Badawczy. Dane Instytutu Meteorologii i Gospodarki Wodnej – Państwowego Instytutu Badawczego zostały przetworzone.

Dane źródłowe można odnaleźć na stronie https://dane.imgw.pl